sensor_id;sensor_type;location;lat;lon;timestamp;temperature;humidity
74511;DHT22;62991;50.040;18.400;2023-08-06T00:00:04;17.80;86.10
74511;DHT22;62991;50.040;18.400;2023-08-06T00:03:05;17.80;86.20
74511;DHT22;62991;50.040;18.400;2023-08-06T00:06:05;17.90;86.00
74511;DHT22;62991;50.040;18.400;2023-08-06T00:09:06;18.10;85.30
74511;DHT22;62991;50.040;18.400;2023-08-06T00:12:07;18.00;85.20
74511;DHT22;62991;50.040;18.400;2023-08-06T00:15:08;18.10;84.90
74511;DHT22;62991;50.040;18.400;2023-08-06T00:18:09;18.20;84.60
74511;DHT22;62991;50.040;18.400;2023-08-06T00:21:10;18.20;84.40
74511;DHT22;62991;50.040;18.400;2023-08-06T00:24:12;18.10;85.20
74511;DHT22;62991;50.040;18.400;2023-08-06T00:27:13;18.20;85.00
74511;DHT22;62991;50.040;18.400;2023-08-06T00:30:14;18.10;84.90
74511;DHT22;62991;50.040;18.400;2023-08-06T00:33:14;18.00;85.30
74511;DHT22;62991;50.040;18.400;2023-08-06T00:36:15;18.00;85.20
74511;DHT22;62991;50.040;18.400;2023-08-06T00:39:15;18.00;85.40
74511;DHT22;62991;50.040;18.400;2023-08-06T00:42:16;18.00;85.80
74511;DHT22;62991;50.040;18.400;2023-08-06T00:45:21;18.00;85.80
74511;DHT22;62991;50.040;18.400;2023-08-06T00:48:22;18.00;86.00
74511;DHT22;62991;50.040;18.400;2023-08-06T00:51:23;18.00;86.30
74511;DHT22;62991;50.040;18.400;2023-08-06T00:54:26;18.00;86.30
74511;DHT22;62991;50.040;18.400;2023-08-06T00:57:27;18.20;85.60
74511;DHT22;62991;50.040;18.400;2023-08-06T01:00:28;18.20;85.30
74511;DHT22;62991;50.040;18.400;2023-08-06T01:03:29;18.30;85.10
74511;DHT22;62991;50.040;18.400;2023-08-06T01:06:51;18.20;85.10
74511;DHT22;62991;50.040;18.400;2023-08-06T01:10:25;18.40;85.10
74511;DHT22;62991;50.040;18.400;2023-08-06T01:13:43;18.40;84.60
74511;DHT22;62991;50.040;18.400;2023-08-06T01:16:48;18.30;84.80
74511;DHT22;62991;50.040;18.400;2023-08-06T01:19:49;18.20;84.70
74511;DHT22;62991;50.040;18.400;2023-08-06T01:22:50;18.10;85.60
74511;DHT22;62991;50.040;18.400;2023-08-06T01:29:31;18.00;86.10
74511;DHT22;62991;50.040;18.400;2023-08-06T01:32:35;18.10;86.00
74511;DHT22;62991;50.040;18.400;2023-08-06T01:35:38;18.00;86.10
74511;DHT22;62991;50.040;18.400;2023-08-06T01:38:39;17.80;86.70
74511;DHT22;62991;50.040;18.400;2023-08-06T01:41:40;17.70;87.00
74511;DHT22;62991;50.040;18.400;2023-08-06T01:44:40;17.80;86.80
74511;DHT22;62991;50.040;18.400;2023-08-06T01:47:41;17.80;86.90
74511;DHT22;62991;50.040;18.400;2023-08-06T01:50:41;17.80;86.30
74511;DHT22;62991;50.040;18.400;2023-08-06T01:53:42;17.80;86.30
74511;DHT22;62991;50.040;18.400;2023-08-06T01:56:43;17.90;86.00
74511;DHT22;62991;50.040;18.400;2023-08-06T01:59:46;18.00;86.10
74511;DHT22;62991;50.040;18.400;2023-08-06T02:02:46;17.90;85.40
74511;DHT22;62991;50.040;18.400;2023-08-06T02:05:47;17.80;85.70
74511;DHT22;62991;50.040;18.400;2023-08-06T02:08:47;17.80;85.70
74511;DHT22;62991;50.040;18.400;2023-08-06T02:11:48;17.60;86.30
74511;DHT22;62991;50.040;18.400;2023-08-06T02:14:49;17.70;86.10
74511;DHT22;62991;50.040;18.400;2023-08-06T02:17:49;17.70;86.10
74511;DHT22;62991;50.040;18.400;2023-08-06T02:20:59;17.70;86.30
74511;DHT22;62991;50.040;18.400;2023-08-06T02:24:00;17.60;85.70
74511;DHT22;62991;50.040;18.400;2023-08-06T02:27:01;17.50;86.60
74511;DHT22;62991;50.040;18.400;2023-08-06T02:30:02;17.60;86.00
74511;DHT22;62991;50.040;18.400;2023-08-06T02:33:04;17.70;85.30
74511;DHT22;62991;50.040;18.400;2023-08-06T02:36:05;17.50;85.10
74511;DHT22;62991;50.040;18.400;2023-08-06T02:39:05;17.50;85.70
74511;DHT22;62991;50.040;18.400;2023-08-06T02:42:07;17.40;86.10
74511;DHT22;62991;50.040;18.400;2023-08-06T02:45:08;17.40;85.70
74511;DHT22;62991;50.040;18.400;2023-08-06T02:48:09;17.40;85.60
74511;DHT22;62991;50.040;18.400;2023-08-06T02:51:09;17.50;85.00
74511;DHT22;62991;50.040;18.400;2023-08-06T02:54:10;17.40;84.80
74511;DHT22;62991;50.040;18.400;2023-08-06T02:57:11;17.30;84.80
74511;DHT22;62991;50.040;18.400;2023-08-06T03:00:11;17.20;84.60
74511;DHT22;62991;50.040;18.400;2023-08-06T03:03:12;17.10;84.60
74511;DHT22;62991;50.040;18.400;2023-08-06T03:06:13;17.10;84.50
74511;DHT22;62991;50.040;18.400;2023-08-06T03:09:13;16.90;84.80
74511;DHT22;62991;50.040;18.400;2023-08-06T03:12:14;16.90;85.20
74511;DHT22;62991;50.040;18.400;2023-08-06T03:15:15;16.80;85.00
74511;DHT22;62991;50.040;18.400;2023-08-06T03:18:15;16.70;85.20
74511;DHT22;62991;50.040;18.400;2023-08-06T03:21:16;16.60;85.50
74511;DHT22;62991;50.040;18.400;2023-08-06T03:24:17;16.60;86.00
74511;DHT22;62991;50.040;18.400;2023-08-06T03:27:17;16.50;86.10
74511;DHT22;62991;50.040;18.400;2023-08-06T03:30:18;16.60;85.80
74511;DHT22;62991;50.040;18.400;2023-08-06T03:33:19;16.60;85.70
74511;DHT22;62991;50.040;18.400;2023-08-06T03:36:19;16.50;85.70
74511;DHT22;62991;50.040;18.400;2023-08-06T03:39:20;16.70;85.30
74511;DHT22;62991;50.040;18.400;2023-08-06T03:42:21;16.70;85.30
74511;DHT22;62991;50.040;18.400;2023-08-06T03:45:21;16.70;84.90
74511;DHT22;62991;50.040;18.400;2023-08-06T03:48:22;16.60;85.00
74511;DHT22;62991;50.040;18.400;2023-08-06T03:51:22;16.50;85.30
74511;DHT22;62991;50.040;18.400;2023-08-06T03:54:23;16.40;85.60
74511;DHT22;62991;50.040;18.400;2023-08-06T03:57:24;16.50;85.40
74511;DHT22;62991;50.040;18.400;2023-08-06T04:00:24;16.40;85.30
74511;DHT22;62991;50.040;18.400;2023-08-06T04:03:25;16.30;85.50
74511;DHT22;62991;50.040;18.400;2023-08-06T04:06:25;16.30;86.00
74511;DHT22;62991;50.040;18.400;2023-08-06T04:09:28;16.30;85.70
74511;DHT22;62991;50.040;18.400;2023-08-06T04:12:29;16.20;85.50
74511;DHT22;62991;50.040;18.400;2023-08-06T04:15:33;16.10;85.70
74511;DHT22;62991;50.040;18.400;2023-08-06T04:18:34;16.00;86.00
74511;DHT22;62991;50.040;18.400;2023-08-06T04:21:35;16.10;86.10
74511;DHT22;62991;50.040;18.400;2023-08-06T04:24:35;16.00;85.70
74511;DHT22;62991;50.040;18.400;2023-08-06T04:27:36;15.90;85.30
74511;DHT22;62991;50.040;18.400;2023-08-06T04:30:41;15.80;86.40
74511;DHT22;62991;50.040;18.400;2023-08-06T04:33:42;15.70;86.20
74511;DHT22;62991;50.040;18.400;2023-08-06T04:36:43;15.70;86.10
74511;DHT22;62991;50.040;18.400;2023-08-06T04:39:43;15.70;86.30
74511;DHT22;62991;50.040;18.400;2023-08-06T04:42:44;15.80;86.10
74511;DHT22;62991;50.040;18.400;2023-08-06T04:45:49;15.70;86.10
74511;DHT22;62991;50.040;18.400;2023-08-06T04:48:50;15.80;86.20
74511;DHT22;62991;50.040;18.400;2023-08-06T04:51:50;16.00;85.40
74511;DHT22;62991;50.040;18.400;2023-08-06T04:54:51;16.00;85.20
74511;DHT22;62991;50.040;18.400;2023-08-06T04:57:51;16.00;85.40
74511;DHT22;62991;50.040;18.400;2023-08-06T05:00:53;16.10;84.80
74511;DHT22;62991;50.040;18.400;2023-08-06T05:03:54;16.10;85.00
74511;DHT22;62991;50.040;18.400;2023-08-06T05:06:54;16.00;84.50
74511;DHT22;62991;50.040;18.400;2023-08-06T05:09:55;15.90;84.70
74511;DHT22;62991;50.040;18.400;2023-08-06T05:12:56;15.80;84.90
74511;DHT22;62991;50.040;18.400;2023-08-06T05:15:56;15.60;84.80
74511;DHT22;62991;50.040;18.400;2023-08-06T05:18:57;15.60;85.00
74511;DHT22;62991;50.040;18.400;2023-08-06T05:21:58;15.60;85.10
74511;DHT22;62991;50.040;18.400;2023-08-06T05:24:58;15.50;85.30
74511;DHT22;62991;50.040;18.400;2023-08-06T05:27:59;15.40;85.00
74511;DHT22;62991;50.040;18.400;2023-08-06T05:31:05;15.50;85.00
74511;DHT22;62991;50.040;18.400;2023-08-06T05:34:06;15.40;85.20
74511;DHT22;62991;50.040;18.400;2023-08-06T05:37:08;15.40;85.50
74511;DHT22;62991;50.040;18.400;2023-08-06T05:40:09;15.40;85.00
74511;DHT22;62991;50.040;18.400;2023-08-06T05:43:10;15.40;84.70
74511;DHT22;62991;50.040;18.400;2023-08-06T05:46:11;15.50;84.60
74511;DHT22;62991;50.040;18.400;2023-08-06T05:49:11;15.40;84.40
74511;DHT22;62991;50.040;18.400;2023-08-06T05:52:14;15.60;84.70
74511;DHT22;62991;50.040;18.400;2023-08-06T05:55:14;15.60;84.20
74511;DHT22;62991;50.040;18.400;2023-08-06T05:58:15;15.50;84.90
74511;DHT22;62991;50.040;18.400;2023-08-06T06:01:16;15.60;84.10
74511;DHT22;62991;50.040;18.400;2023-08-06T06:04:17;15.60;84.30
74511;DHT22;62991;50.040;18.400;2023-08-06T06:07:17;15.50;84.40
74511;DHT22;62991;50.040;18.400;2023-08-06T06:10:18;15.40;83.90
74511;DHT22;62991;50.040;18.400;2023-08-06T06:13:18;15.30;84.50
74511;DHT22;62991;50.040;18.400;2023-08-06T06:16:19;15.30;84.30
74511;DHT22;62991;50.040;18.400;2023-08-06T06:19:20;15.40;84.10
74511;DHT22;62991;50.040;18.400;2023-08-06T06:22:21;15.30;84.50
74511;DHT22;62991;50.040;18.400;2023-08-06T06:25:21;15.40;84.20
74511;DHT22;62991;50.040;18.400;2023-08-06T06:28:22;15.30;84.50
74511;DHT22;62991;50.040;18.400;2023-08-06T06:31:22;15.30;84.70
74511;DHT22;62991;50.040;18.400;2023-08-06T06:34:23;15.30;84.70
74511;DHT22;62991;50.040;18.400;2023-08-06T06:37:24;15.40;84.80
74511;DHT22;62991;50.040;18.400;2023-08-06T06:40:24;15.40;84.40
74511;DHT22;62991;50.040;18.400;2023-08-06T06:43:25;15.40;84.00
74511;DHT22;62991;50.040;18.400;2023-08-06T06:46:26;15.30;84.00
74511;DHT22;62991;50.040;18.400;2023-08-06T06:49:27;15.20;84.50
74511;DHT22;62991;50.040;18.400;2023-08-06T06:52:27;15.20;84.50
74511;DHT22;62991;50.040;18.400;2023-08-06T06:55:28;15.10;85.30
74511;DHT22;62991;50.040;18.400;2023-08-06T06:58:29;15.00;85.10
74511;DHT22;62991;50.040;18.400;2023-08-06T07:01:29;15.00;85.40
74511;DHT22;62991;50.040;18.400;2023-08-06T07:04:30;15.00;85.50
74511;DHT22;62991;50.040;18.400;2023-08-06T07:07:31;15.10;85.20
74511;DHT22;62991;50.040;18.400;2023-08-06T07:10:31;14.90;85.40
74511;DHT22;62991;50.040;18.400;2023-08-06T07:13:33;14.90;85.70
74511;DHT22;62991;50.040;18.400;2023-08-06T07:16:34;14.90;85.30
74511;DHT22;62991;50.040;18.400;2023-08-06T07:19:35;14.90;85.60
74511;DHT22;62991;50.040;18.400;2023-08-06T07:22:36;14.90;85.80
74511;DHT22;62991;50.040;18.400;2023-08-06T07:25:36;14.80;85.10
74511;DHT22;62991;50.040;18.400;2023-08-06T07:28:37;14.90;85.60
74511;DHT22;62991;50.040;18.400;2023-08-06T07:31:37;14.90;85.20
74511;DHT22;62991;50.040;18.400;2023-08-06T07:34:38;14.80;85.10
74511;DHT22;62991;50.040;18.400;2023-08-06T07:37:39;14.90;85.20
74511;DHT22;62991;50.040;18.400;2023-08-06T07:40:40;14.90;84.70
74511;DHT22;62991;50.040;18.400;2023-08-06T07:43:40;14.90;84.90
74511;DHT22;62991;50.040;18.400;2023-08-06T07:46:43;14.90;85.20
74511;DHT22;62991;50.040;18.400;2023-08-06T07:49:43;14.70;85.80
74511;DHT22;62991;50.040;18.400;2023-08-06T07:52:44;14.80;85.90
74511;DHT22;62991;50.040;18.400;2023-08-06T07:55:49;14.80;85.40
74511;DHT22;62991;50.040;18.400;2023-08-06T07:58:49;14.80;85.00
74511;DHT22;62991;50.040;18.400;2023-08-06T08:01:50;14.80;85.40
74511;DHT22;62991;50.040;18.400;2023-08-06T08:04:51;14.90;85.00
74511;DHT22;62991;50.040;18.400;2023-08-06T08:07:51;14.80;84.90
74511;DHT22;62991;50.040;18.400;2023-08-06T08:10:53;14.80;85.40
74511;DHT22;62991;50.040;18.400;2023-08-06T08:13:55;14.70;85.60
74511;DHT22;62991;50.040;18.400;2023-08-06T08:16:56;14.70;85.70
74511;DHT22;62991;50.040;18.400;2023-08-06T08:19:56;14.70;85.90
74511;DHT22;62991;50.040;18.400;2023-08-06T08:22:58;14.80;85.80
74511;DHT22;62991;50.040;18.400;2023-08-06T08:25:59;14.70;85.40
74511;DHT22;62991;50.040;18.400;2023-08-06T08:29:02;14.70;85.00
74511;DHT22;62991;50.040;18.400;2023-08-06T08:32:03;14.70;85.50
74511;DHT22;62991;50.040;18.400;2023-08-06T08:35:04;14.60;85.80
74511;DHT22;62991;50.040;18.400;2023-08-06T08:38:04;14.70;86.00
74511;DHT22;62991;50.040;18.400;2023-08-06T08:41:05;14.70;86.10
74511;DHT22;62991;50.040;18.400;2023-08-06T08:44:10;14.80;85.60
74511;DHT22;62991;50.040;18.400;2023-08-06T08:47:11;14.70;86.00
74511;DHT22;62991;50.040;18.400;2023-08-06T08:50:11;14.70;85.30
74511;DHT22;62991;50.040;18.400;2023-08-06T08:53:14;14.60;85.40
74511;DHT22;62991;50.040;18.400;2023-08-06T08:56:15;14.70;86.00
74511;DHT22;62991;50.040;18.400;2023-08-06T08:59:16;14.70;85.50
74511;DHT22;62991;50.040;18.400;2023-08-06T09:02:18;14.60;86.00
74511;DHT22;62991;50.040;18.400;2023-08-06T09:05:20;14.70;85.70
74511;DHT22;62991;50.040;18.400;2023-08-06T09:08:27;14.70;85.80
74511;DHT22;62991;50.040;18.400;2023-08-06T09:11:33;14.70;85.20
74511;DHT22;62991;50.040;18.400;2023-08-06T09:14:40;14.70;86.00
74511;DHT22;62991;50.040;18.400;2023-08-06T09:17:40;14.80;85.70
74511;DHT22;62991;50.040;18.400;2023-08-06T09:20:41;14.80;85.20
74511;DHT22;62991;50.040;18.400;2023-08-06T09:23:42;14.80;84.80
74511;DHT22;62991;50.040;18.400;2023-08-06T09:26:44;14.70;85.60
74511;DHT22;62991;50.040;18.400;2023-08-06T09:29:46;14.70;85.50
74511;DHT22;62991;50.040;18.400;2023-08-06T09:32:48;14.80;85.90
74511;DHT22;62991;50.040;18.400;2023-08-06T09:35:48;14.70;85.10
74511;DHT22;62991;50.040;18.400;2023-08-06T09:38:49;14.70;85.50
74511;DHT22;62991;50.040;18.400;2023-08-06T09:41:56;14.70;85.70
74511;DHT22;62991;50.040;18.400;2023-08-06T09:45:06;14.70;85.80
74511;DHT22;62991;50.040;18.400;2023-08-06T09:48:08;14.70;85.40
74511;DHT22;62991;50.040;18.400;2023-08-06T09:51:09;14.70;85.60
74511;DHT22;62991;50.040;18.400;2023-08-06T09:54:15;14.60;86.10
74511;DHT22;62991;50.040;18.400;2023-08-06T09:57:16;14.70;86.40
74511;DHT22;62991;50.040;18.400;2023-08-06T10:00:17;14.80;85.70
74511;DHT22;62991;50.040;18.400;2023-08-06T10:03:18;14.80;85.30
74511;DHT22;62991;50.040;18.400;2023-08-06T10:06:20;14.80;85.20
74511;DHT22;62991;50.040;18.400;2023-08-06T10:09:21;14.70;85.60
74511;DHT22;62991;50.040;18.400;2023-08-06T10:12:24;14.80;85.40
74511;DHT22;62991;50.040;18.400;2023-08-06T10:15:27;14.80;85.60
74511;DHT22;62991;50.040;18.400;2023-08-06T10:18:30;14.80;85.50
74511;DHT22;62991;50.040;18.400;2023-08-06T10:21:31;14.80;85.90
74511;DHT22;62991;50.040;18.400;2023-08-06T10:30:49;15.00;84.70
74511;DHT22;62991;50.040;18.400;2023-08-06T10:33:51;14.90;84.80
74511;DHT22;62991;50.040;18.400;2023-08-06T10:36:54;14.80;85.40
74511;DHT22;62991;50.040;18.400;2023-08-06T10:39:55;14.90;85.40
74511;DHT22;62991;50.040;18.400;2023-08-06T10:42:58;15.00;85.60
74511;DHT22;62991;50.040;18.400;2023-08-06T10:46:01;15.00;85.10
74511;DHT22;62991;50.040;18.400;2023-08-06T10:49:02;15.00;85.10
74511;DHT22;62991;50.040;18.400;2023-08-06T10:52:03;14.90;85.40
74511;DHT22;62991;50.040;18.400;2023-08-06T10:55:04;14.90;86.00
74511;DHT22;62991;50.040;18.400;2023-08-06T10:58:05;15.10;84.90
74511;DHT22;62991;50.040;18.400;2023-08-06T11:01:06;15.20;84.60
74511;DHT22;62991;50.040;18.400;2023-08-06T11:04:07;15.30;84.80
74511;DHT22;62991;50.040;18.400;2023-08-06T11:07:07;15.30;84.80
74511;DHT22;62991;50.040;18.400;2023-08-06T11:10:10;15.40;84.50
74511;DHT22;62991;50.040;18.400;2023-08-06T11:13:11;15.50;84.10
74511;DHT22;62991;50.040;18.400;2023-08-06T11:16:13;15.40;83.70
74511;DHT22;62991;50.040;18.400;2023-08-06T11:19:14;15.30;83.80
74511;DHT22;62991;50.040;18.400;2023-08-06T11:22:16;15.40;84.60
74511;DHT22;62991;50.040;18.400;2023-08-06T11:25:20;15.40;84.20
74511;DHT22;62991;50.040;18.400;2023-08-06T11:28:21;15.40;84.40
74511;DHT22;62991;50.040;18.400;2023-08-06T11:31:23;15.20;84.40
74511;DHT22;62991;50.040;18.400;2023-08-06T11:34:23;15.30;84.70
74511;DHT22;62991;50.040;18.400;2023-08-06T11:37:24;15.40;84.40
74511;DHT22;62991;50.040;18.400;2023-08-06T11:40:25;15.30;84.50
74511;DHT22;62991;50.040;18.400;2023-08-06T11:43:26;15.30;85.00
74511;DHT22;62991;50.040;18.400;2023-08-06T11:46:53;15.20;84.60
74511;DHT22;62991;50.040;18.400;2023-08-06T11:49:56;15.30;84.70
74511;DHT22;62991;50.040;18.400;2023-08-06T11:52:58;15.30;84.70
74511;DHT22;62991;50.040;18.400;2023-08-06T11:55:59;15.30;84.90
74511;DHT22;62991;50.040;18.400;2023-08-06T11:59:00;15.30;85.10
74511;DHT22;62991;50.040;18.400;2023-08-06T12:02:04;15.30;85.10
74511;DHT22;62991;50.040;18.400;2023-08-06T12:08:09;15.30;86.30
74511;DHT22;62991;50.040;18.400;2023-08-06T12:11:10;15.40;85.50
74511;DHT22;62991;50.040;18.400;2023-08-06T12:14:10;15.30;85.70
74511;DHT22;62991;50.040;18.400;2023-08-06T12:17:11;15.40;85.40
74511;DHT22;62991;50.040;18.400;2023-08-06T12:20:12;15.30;85.40
74511;DHT22;62991;50.040;18.400;2023-08-06T12:23:12;15.30;85.50
74511;DHT22;62991;50.040;18.400;2023-08-06T12:26:15;15.30;85.50
74511;DHT22;62991;50.040;18.400;2023-08-06T12:29:16;15.30;85.60
74511;DHT22;62991;50.040;18.400;2023-08-06T12:32:17;15.40;85.90
74511;DHT22;62991;50.040;18.400;2023-08-06T12:35:17;15.40;85.70
74511;DHT22;62991;50.040;18.400;2023-08-06T12:38:18;15.30;85.30
74511;DHT22;62991;50.040;18.400;2023-08-06T12:41:19;15.20;85.70
74511;DHT22;62991;50.040;18.400;2023-08-06T12:44:19;15.30;85.90
74511;DHT22;62991;50.040;18.400;2023-08-06T12:47:20;15.20;86.20
74511;DHT22;62991;50.040;18.400;2023-08-06T12:50:21;15.20;86.40
74511;DHT22;62991;50.040;18.400;2023-08-06T12:53:21;15.20;86.20
74511;DHT22;62991;50.040;18.400;2023-08-06T12:56:23;15.30;86.20
74511;DHT22;62991;50.040;18.400;2023-08-06T12:59:24;15.20;86.60
74511;DHT22;62991;50.040;18.400;2023-08-06T13:02:24;15.30;86.50
74511;DHT22;62991;50.040;18.400;2023-08-06T13:05:30;15.40;85.90
74511;DHT22;62991;50.040;18.400;2023-08-06T13:08:30;15.30;85.90
74511;DHT22;62991;50.040;18.400;2023-08-06T13:11:31;15.30;86.00
74511;DHT22;62991;50.040;18.400;2023-08-06T13:14:32;15.30;86.00
74511;DHT22;62991;50.040;18.400;2023-08-06T13:17:32;15.50;86.10
74511;DHT22;62991;50.040;18.400;2023-08-06T13:20:33;15.50;85.30
74511;DHT22;62991;50.040;18.400;2023-08-06T13:23:34;15.60;85.00
74511;DHT22;62991;50.040;18.400;2023-08-06T13:26:34;15.70;85.30
74511;DHT22;62991;50.040;18.400;2023-08-06T13:29:35;15.70;85.30
74511;DHT22;62991;50.040;18.400;2023-08-06T13:32:36;15.70;84.60
74511;DHT22;62991;50.040;18.400;2023-08-06T13:35:37;16.00;84.40
74511;DHT22;62991;50.040;18.400;2023-08-06T13:38:38;16.20;83.30
74511;DHT22;62991;50.040;18.400;2023-08-06T13:41:39;16.50;82.60
74511;DHT22;62991;50.040;18.400;2023-08-06T13:44:40;16.90;80.80
74511;DHT22;62991;50.040;18.400;2023-08-06T13:47:41;16.60;81.70
74511;DHT22;62991;50.040;18.400;2023-08-06T13:50:41;16.30;81.80
74511;DHT22;62991;50.040;18.400;2023-08-06T13:53:42;16.10;83.00
74511;DHT22;62991;50.040;18.400;2023-08-06T13:56:43;15.90;83.30
74511;DHT22;62991;50.040;18.400;2023-08-06T13:59:44;15.70;83.80
74511;DHT22;62991;50.040;18.400;2023-08-06T14:02:44;15.60;83.70
74511;DHT22;62991;50.040;18.400;2023-08-06T14:05:45;15.60;83.40
74511;DHT22;62991;50.040;18.400;2023-08-06T14:08:46;15.70;84.20
74511;DHT22;62991;50.040;18.400;2023-08-06T14:11:47;15.80;83.30
74511;DHT22;62991;50.040;18.400;2023-08-06T14:14:47;15.90;82.40
74511;DHT22;62991;50.040;18.400;2023-08-06T14:17:48;15.90;82.10
74511;DHT22;62991;50.040;18.400;2023-08-06T14:20:49;15.80;81.80
74511;DHT22;62991;50.040;18.400;2023-08-06T14:23:50;15.80;82.00
74511;DHT22;62991;50.040;18.400;2023-08-06T14:26:50;15.80;81.90
74511;DHT22;62991;50.040;18.400;2023-08-06T14:29:52;15.80;81.20
74511;DHT22;62991;50.040;18.400;2023-08-06T14:32:52;15.80;81.20
74511;DHT22;62991;50.040;18.400;2023-08-06T14:35:53;16.00;81.40
74511;DHT22;62991;50.040;18.400;2023-08-06T14:38:54;16.00;80.10
74511;DHT22;62991;50.040;18.400;2023-08-06T14:41:54;16.00;80.60
74511;DHT22;62991;50.040;18.400;2023-08-06T14:44:55;16.10;80.80
74511;DHT22;62991;50.040;18.400;2023-08-06T14:47:56;16.10;80.60
74511;DHT22;62991;50.040;18.400;2023-08-06T14:50:57;16.00;80.30
74511;DHT22;62991;50.040;18.400;2023-08-06T14:53:57;16.00;81.00
74511;DHT22;62991;50.040;18.400;2023-08-06T14:56:58;15.80;80.60
74511;DHT22;62991;50.040;18.400;2023-08-06T14:59:59;15.90;80.50
74511;DHT22;62991;50.040;18.400;2023-08-06T15:02:59;15.90;80.40
74511;DHT22;62991;50.040;18.400;2023-08-06T15:06:00;16.00;80.40
74511;DHT22;62991;50.040;18.400;2023-08-06T15:09:01;16.00;80.30
74511;DHT22;62991;50.040;18.400;2023-08-06T15:12:01;16.00;79.70
74511;DHT22;62991;50.040;18.400;2023-08-06T15:15:02;15.90;79.40
74511;DHT22;62991;50.040;18.400;2023-08-06T15:18:03;15.90;78.70
74511;DHT22;62991;50.040;18.400;2023-08-06T15:21:03;15.90;79.50
74511;DHT22;62991;50.040;18.400;2023-08-06T15:24:04;16.00;79.70
74511;DHT22;62991;50.040;18.400;2023-08-06T15:27:05;16.00;79.60
74511;DHT22;62991;50.040;18.400;2023-08-06T15:30:06;16.00;79.00
74511;DHT22;62991;50.040;18.400;2023-08-06T15:33:07;16.10;78.90
74511;DHT22;62991;50.040;18.400;2023-08-06T15:36:08;16.10;79.20
74511;DHT22;62991;50.040;18.400;2023-08-06T15:39:08;16.10;78.90
74511;DHT22;62991;50.040;18.400;2023-08-06T15:42:09;16.10;79.20
74511;DHT22;62991;50.040;18.400;2023-08-06T15:45:10;16.20;79.30
74511;DHT22;62991;50.040;18.400;2023-08-06T15:48:10;16.30;79.10
74511;DHT22;62991;50.040;18.400;2023-08-06T15:51:11;16.20;78.40
74511;DHT22;62991;50.040;18.400;2023-08-06T15:54:12;16.30;79.00
74511;DHT22;62991;50.040;18.400;2023-08-06T15:57:13;16.40;78.40
74511;DHT22;62991;50.040;18.400;2023-08-06T16:00:15;16.40;77.70
74511;DHT22;62991;50.040;18.400;2023-08-06T16:03:16;16.30;78.30
74511;DHT22;62991;50.040;18.400;2023-08-06T16:06:17;16.40;77.60
74511;DHT22;62991;50.040;18.400;2023-08-06T16:09:17;16.30;77.10
74511;DHT22;62991;50.040;18.400;2023-08-06T16:12:18;16.40;76.70
74511;DHT22;62991;50.040;18.400;2023-08-06T16:15:20;16.40;76.80
74511;DHT22;62991;50.040;18.400;2023-08-06T16:18:20;16.30;76.00
74511;DHT22;62991;50.040;18.400;2023-08-06T16:21:21;16.40;76.50
74511;DHT22;62991;50.040;18.400;2023-08-06T16:24:22;16.40;76.50
74511;DHT22;62991;50.040;18.400;2023-08-06T16:27:24;16.40;76.00
74511;DHT22;62991;50.040;18.400;2023-08-06T16:30:25;16.40;76.20
74511;DHT22;62991;50.040;18.400;2023-08-06T16:33:26;16.40;75.60
74511;DHT22;62991;50.040;18.400;2023-08-06T16:36:27;16.40;75.90
74511;DHT22;62991;50.040;18.400;2023-08-06T16:39:27;16.40;76.30
74511;DHT22;62991;50.040;18.400;2023-08-06T16:42:30;16.50;76.10
74511;DHT22;62991;50.040;18.400;2023-08-06T16:45:30;16.40;76.60
74511;DHT22;62991;50.040;18.400;2023-08-06T16:48:35;16.40;76.70
74511;DHT22;62991;50.040;18.400;2023-08-06T16:51:36;16.50;76.70
74511;DHT22;62991;50.040;18.400;2023-08-06T16:54:37;16.50;76.50
74511;DHT22;62991;50.040;18.400;2023-08-06T16:57:37;16.50;76.70
74511;DHT22;62991;50.040;18.400;2023-08-06T17:00:38;16.50;76.60
74511;DHT22;62991;50.040;18.400;2023-08-06T17:03:39;16.50;77.00
74511;DHT22;62991;50.040;18.400;2023-08-06T17:06:39;16.50;76.70
74511;DHT22;62991;50.040;18.400;2023-08-06T17:09:40;16.50;76.40
74511;DHT22;62991;50.040;18.400;2023-08-06T17:12:42;16.60;75.90
74511;DHT22;62991;50.040;18.400;2023-08-06T17:15:42;16.60;75.20
74511;DHT22;62991;50.040;18.400;2023-08-06T17:18:44;16.50;75.60
74511;DHT22;62991;50.040;18.400;2023-08-06T17:21:45;16.30;74.50
74511;DHT22;62991;50.040;18.400;2023-08-06T17:24:46;16.30;74.40
74511;DHT22;62991;50.040;18.400;2023-08-06T17:27:46;16.20;75.30
74511;DHT22;62991;50.040;18.400;2023-08-06T17:30:48;16.20;74.50
74511;DHT22;62991;50.040;18.400;2023-08-06T17:33:48;16.20;74.90
74511;DHT22;62991;50.040;18.400;2023-08-06T17:36:49;16.20;74.90
74511;DHT22;62991;50.040;18.400;2023-08-06T17:39:50;16.20;75.50
74511;DHT22;62991;50.040;18.400;2023-08-06T17:42:51;16.30;75.10
74511;DHT22;62991;50.040;18.400;2023-08-06T17:45:52;16.40;75.40
74511;DHT22;62991;50.040;18.400;2023-08-06T17:48:52;16.30;74.20
74511;DHT22;62991;50.040;18.400;2023-08-06T17:51:55;16.20;74.20
74511;DHT22;62991;50.040;18.400;2023-08-06T17:54:56;16.10;75.00
74511;DHT22;62991;50.040;18.400;2023-08-06T17:57:57;16.10;75.40
74511;DHT22;62991;50.040;18.400;2023-08-06T18:00:57;16.10;75.80
74511;DHT22;62991;50.040;18.400;2023-08-06T18:03:58;16.00;75.80
74511;DHT22;62991;50.040;18.400;2023-08-06T18:06:58;16.10;75.60
74511;DHT22;62991;50.040;18.400;2023-08-06T18:09:59;16.10;75.70
74511;DHT22;62991;50.040;18.400;2023-08-06T18:13:00;16.20;75.80
74511;DHT22;62991;50.040;18.400;2023-08-06T18:16:00;16.30;75.80
74511;DHT22;62991;50.040;18.400;2023-08-06T18:19:01;16.40;75.70
74511;DHT22;62991;50.040;18.400;2023-08-06T18:22:03;16.40;75.20
74511;DHT22;62991;50.040;18.400;2023-08-06T18:25:05;16.50;76.00
74511;DHT22;62991;50.040;18.400;2023-08-06T18:28:07;16.50;75.60
74511;DHT22;62991;50.040;18.400;2023-08-06T18:31:08;16.50;76.30
74511;DHT22;62991;50.040;18.400;2023-08-06T18:34:09;16.70;76.00
74511;DHT22;62991;50.040;18.400;2023-08-06T18:37:09;16.80;75.80
74511;DHT22;62991;50.040;18.400;2023-08-06T18:40:10;16.80;75.60
74511;DHT22;62991;50.040;18.400;2023-08-06T18:43:11;16.80;75.40
74511;DHT22;62991;50.040;18.400;2023-08-06T18:46:12;16.70;76.00
74511;DHT22;62991;50.040;18.400;2023-08-06T18:49:12;16.50;75.90
74511;DHT22;62991;50.040;18.400;2023-08-06T18:52:15;16.40;76.90
74511;DHT22;62991;50.040;18.400;2023-08-06T18:55:15;16.50;77.10
74511;DHT22;62991;50.040;18.400;2023-08-06T18:58:17;16.50;77.40